KHBG

Details ICAO KHBG (HBG)
Name BOBBY L CHAIN MUNI
Region United States
Timezone America/Chicago (UTC-5.0)
Plans Departing 10
Arriving 3
Stats Elevation 151 ft / 46 m (AMSL)
Location 31.264948° -89.252897°
Runways 1
Magnetic Variation 1.559° W
Sunrise 2018-05-25 10:57:15 UTC / 2018-05-25 05:57:15 Local
Sunset 2018-05-26 00:53:34 UTC / 2018-05-25 19:53:34 Local
Advertisement - Login to hide

Runways

ID Width Length Bearing (true) Bearing (mag) Surface Threshold Offset Overrun Length
13 150 ft / 46 m 6,096 ft / 1,858 m 131.13° 132.69° Asphalt 996 ft / 304 m 0 ft / 0 m
31 150 ft / 46 m 6,096 ft / 1,858 m 311.13° 312.69° Asphalt 0 ft / 0 m 0 ft / 0 m

Map

Weather


0- 5 10 15 20 25 30 35+ Temperature / ° C

Clouds and Precipitation
Forecast for 2018-05-25 12:00 UTC. Updated 2 hours ago

Ground ~20,000 ft ~40,000 ft Winds

METAR

KHBG 251253Z AUTO 14003KT 10SM SCT100 23/22 A3004 RMK AO2 SLP169 T02280217

TAF

TAF KHBG 251143Z 2512/2612 VRB03KT 6SM BR SCT002 FM251300 VRB03KT P6SM SCT025 SCT040 FM251700 VRB04KT P6SM VCTS SCT030 BKN050CB FM252000 VRB04KT P6SM -SHRA VCTS BKN035CB BKN060 FM260100 15003KT P6SM BKN100

Frequencies

Recorded 135.42 MHz ASOS
Unicom 122.80 MHz CTAF/UNICOM
Warning: Do not use this data for real-world aviation or navigation. No guarantee of current accuracy is given.